This is the latest recevied weather packets stored in our database for station/object EA5GTE-12. If no packets are shown the sender has not sent any weather packets the latest 10 day(s).
| Time | Temp. | Humidity | Pressure | Rain* | Wind** | Luminosity | Snow |
|---|---|---|---|---|---|---|---|
| 1787494087 | 33.33° C | 30% | 937.5 hPa | - | - | - | - |
| 1787493187 | 33.89° C | 30% | 937.7 hPa | - | - | - | - |
| 1787492287 | 33.33° C | 30% | 937.9 hPa | - | - | - | - |
| 1787491387 | 33.33° C | 31% | 938 hPa | - | - | - | - |
| 1787490487 | 33.89° C | 30% | 938.1 hPa | - | - | - | - |
| 1787489587 | 32.78° C | 35% | 938.4 hPa | - | - | - | - |
| 1787488686 | 33.33° C | 34% | 938.5 hPa | - | - | - | - |
| 1787487786 | 31.67° C | 39% | 938.6 hPa | - | - | - | - |
| 1787486887 | 31.67° C | 38% | 938.8 hPa | - | - | - | - |
| 1787485986 | 32.78° C | 39% | 939 hPa | - | - | - | - |
| 1787485086 | 33.33° C | 38% | 938.9 hPa | - | - | - | - |
| 1787484186 | 32.22° C | 39% | 939 hPa | - | - | - | - |
| 1787483286 | 32.22° C | 39% | 939.2 hPa | - | - | - | - |
| 1787482422 | 29.44° C | 48% | 939.6 hPa | - | - | - | - |
| 1787482386 | 29.44° C | 48% | 939.6 hPa | - | - | - | - |
| 1787481486 | 30.56° C | 44% | 939.7 hPa | - | - | - | - |
| 1787479685 | 30.56° C | 48% | 940 hPa | - | - | - | - |
| 1787478785 | 29.44° C | 51% | 940.1 hPa | - | - | - | - |
| 1787477885 | 31.11° C | 47% | 940.2 hPa | - | - | - | - |
| 1787476985 | 31.11° C | 51% | 940.3 hPa | - | - | - | - |
| 1787476085 | 28.89° C | 57% | 940.5 hPa | - | - | - | - |
| 1787475185 | 28.89° C | 57% | 940.7 hPa | - | - | - | - |
| 1787474285 | 29.44° C | 58% | 940.7 hPa | - | - | - | - |
| 1787473385 | 28.33° C | 62% | 940.6 hPa | - | - | - | - |
| 1787472485 | 28.89° C | 67% | 940.7 hPa | - | - | - | - |
* Rain since midnight (hover to see other rain measurements)
** Current wind speed in m/s (hover to see current wind gust speed)